Time;durP1;ratioP1;P1;durP2;ratioP2;P2;SDS_P1;SDS_P2;PMS_P1;PMS_P2;Temp;Humidity;BMP_temperature;BMP_pressure;BME280_temperature;BME280_humidity;BME280_pressure;Samples;Min_cycle;Max_cycle;Signal;HPM_P1;HPM_P2
2022/01/25 00:26:29;;;;;;;60.83;26.63;;;5.10;99.90;;;;;;5015438;28;20029;-69
2022/01/25 00:31:34;;;;;;;51.90;24.63;;;5.10;99.90;;;;;;5014750;28;20389;-68
2022/01/25 00:34:00;;;;;;;55.75;23.38;;;5.20;99.90;;;;;;5015029;28;20020;-69
2022/01/25 00:36:27;;;;;;;65.07;25.48;;;5.20;99.90;;;;;;5014746;28;20098;-70
2022/01/25 00:38:54;;;;;;;60.85;26.15;;;5.20;99.90;;;;;;5014901;28;20026;-70
2022/01/25 00:41:20;;;;;;;55.83;26.25;;;5.20;99.90;;;;;;5014406;28;20037;-70
2022/01/25 00:43:47;;;;;;;56.03;24.88;;;5.20;99.90;;;;;;5014555;28;20060;-70
2022/01/25 00:46:14;;;;;;;56.40;24.92;;;5.20;99.90;;;;;;5015073;28;20024;-70
2022/01/25 00:48:44;;;;;;;48.45;24.70;;;5.20;99.90;;;;;;5014219;28;20446;-70
2022/01/25 00:56:26;;;;;;;55.50;26.00;;;5.20;99.90;;;;;;5014618;28;20462;-70
2022/01/25 00:58:53;;;;;;;69.85;26.08;;;5.20;99.90;;;;;;5014341;28;20022;-70
2022/01/25 01:01:20;;;;;;;50.15;25.88;;;5.20;99.90;;;;;;5013929;28;20122;-70
2022/01/25 01:03:46;;;;;;;51.15;25.95;;;5.30;99.90;;;;;;5014233;28;20025;-70
2022/01/25 01:06:12;;;;;;;60.60;26.23;;;5.20;99.90;;;;;;5014483;28;20484;-70
2022/01/25 01:08:37;;;;;;;71.25;26.90;;;5.20;99.90;;;;;;5014460;28;20021;-70
2022/01/25 01:11:07;;;;;;;61.60;27.05;;;5.20;99.90;;;;;;5014059;28;20402;-70
2022/01/25 01:16:40;;;;;;;65.45;27.55;;;5.20;99.90;;;;;;5014067;28;20065;-70
2022/01/25 01:43:34;;;;;;;60.90;24.70;;;5.30;99.90;;;;;;5014250;28;20059;-70
2022/01/25 01:51:29;;;;;;;57.42;25.58;;;5.40;99.90;;;;;;5014110;28;20084;-70
2022/01/25 01:53:57;;;;;;;50.92;23.98;;;5.30;99.90;;;;;;5013896;28;20382;-70
2022/01/25 01:56:23;;;;;;;60.55;24.17;;;5.40;99.90;;;;;;5013619;28;20034;-70
2022/01/25 01:58:52;;;;;;;57.25;23.60;;;5.40;99.90;;;;;;5014305;28;20034;-70
2022/01/25 02:01:24;;;;;;;72.45;25.73;;;5.40;99.90;;;;;;5017674;28;20026;-70
2022/01/25 02:03:51;;;;;;;65.88;23.63;;;5.40;99.90;;;;;;4999995;28;20112;-70
2022/01/25 02:06:17;;;;;;;53.58;22.33;;;5.40;99.90;;;;;;5017507;28;20076;-70
2022/01/25 02:08:42;;;;;;;59.45;21.73;;;5.40;99.90;;;;;;5017468;28;20101;-70
2022/01/25 02:11:09;;;;;;;61.50;22.80;;;5.40;99.90;;;;;;5017371;28;20393;-70
2022/01/25 02:13:37;;;;;;;55.72;21.80;;;5.50;99.90;;;;;;5017345;28;20021;-70
2022/01/25 02:16:06;;;;;;;58.70;21.83;;;5.50;99.90;;;;;;5017301;28;20109;-70
2022/01/25 02:24:00;;;;;;;53.38;17.88;;;5.50;99.90;;;;;;5017286;28;19955;-70
2022/01/25 02:26:25;;;;;;;46.28;17.88;;;5.50;99.90;;;;;;5017122;28;20026;-70
2022/01/25 02:28:51;;;;;;;58.40;17.08;;;5.50;99.90;;;;;;5017072;28;20038;-70
2022/01/25 02:31:17;;;;;;;49.00;18.25;;;5.50;99.90;;;;;;5017077;28;20037;-70
2022/01/25 02:33:43;;;;;;;48.95;16.67;;;5.60;99.90;;;;;;5017027;28;20025;-70
2022/01/25 02:36:13;;;;;;;51.17;17.05;;;5.60;99.90;;;;;;5017211;28;20470;-70
2022/01/25 02:38:39;;;;;;;56.03;16.85;;;5.60;99.90;;;;;;5016930;28;20030;-70
2022/01/25 02:41:04;;;;;;;60.85;18.65;;;5.60;99.90;;;;;;5017317;28;20431;-70
2022/01/25 02:43:30;;;;;;;40.17;16.88;;;5.50;99.90;;;;;;5016810;28;20106;-70
2022/01/25 02:49:02;;;;;;;42.47;14.00;;;5.60;99.90;;;;;;4993735;28;20033;-70
2022/01/25 02:51:39;;;;;;;36.33;13.88;;;5.50;99.90;;;;;;5016650;28;20022;-70
2022/01/25 02:54:08;;;;;;;56.63;15.13;;;5.50;99.90;;;;;;5016942;28;20018;-70
2022/01/25 02:56:35;;;;;;;55.22;14.38;;;5.50;99.90;;;;;;5016852;28;20018;-70
2022/01/25 02:59:01;;;;;;;37.10;12.68;;;5.60;99.90;;;;;;5016736;28;20457;-70
2022/01/25 03:01:28;;;;;;;34.85;13.98;;;5.60;99.90;;;;;;5016362;28;20034;-70
2022/01/25 03:03:54;;;;;;;53.28;13.65;;;5.60;99.90;;;;;;5016448;28;20029;-70
2022/01/25 03:06:22;;;;;;;42.15;13.68;;;5.50;99.90;;;;;;5016384;28;20022;-70
2022/01/25 03:08:49;;;;;;;29.55;11.70;;;5.60;99.90;;;;;;5016355;28;20041;-70
2022/01/25 03:11:17;;;;;;;32.78;13.43;;;5.50;99.90;;;;;;5016765;28;20401;-70
2022/01/25 03:13:57;;;;;;;37.33;12.68;;;5.50;99.90;;;;;;5016526;28;20072;-70
2022/01/25 03:16:40;;;;;;;42.08;10.73;;;5.50;99.90;;;;;;5016438;28;20057;-70
2022/01/25 03:21:53;;;;;;;47.50;12.75;;;5.60;99.90;;;;;;5016094;28;20105;-70
2022/01/25 03:24:19;;;;;;;49.47;11.55;;;5.50;99.90;;;;;;5016086;28;20466;-70
2022/01/25 03:26:45;;;;;;;42.30;10.63;;;5.50;99.90;;;;;;5016092;28;20117;-70
2022/01/25 03:29:10;;;;;;;45.65;11.65;;;5.50;99.90;;;;;;5016524;28;20053;-70
2022/01/25 03:31:36;;;;;;;38.78;10.38;;;5.50;99.90;;;;;;5016126;28;20382;-70
2022/01/25 03:34:02;;;;;;;27.98;10.65;;;5.50;99.90;;;;;;4998329;28;20076;-70
2022/01/25 03:36:28;;;;;;;28.92;9.98;;;5.50;99.90;;;;;;5015815;28;20065;-70
2022/01/25 03:38:54;;;;;;;28.80;8.00;;;5.60;99.90;;;;;;5015825;28;20053;-70
2022/01/25 03:41:20;;;;;;;37.55;10.55;;;5.50;99.90;;;;;;5015700;28;20069;-70
2022/01/25 03:43:53;;;;;;;23.23;8.68;;;5.60;99.90;;;;;;5015718;28;20026;-70
2022/01/25 03:46:35;;;;;;;;;;;5.60;99.90;;;;;;5016719;28;20460;-70
2022/01/25 03:51:48;;;;;;;31.77;9.55;;;5.70;99.90;;;;;;5016007;28;20068;-70
2022/01/25 03:54:13;;;;;;;26.88;9.20;;;5.70;99.90;;;;;;5015646;28;20026;-70
2022/01/25 03:56:39;;;;;;;34.03;8.60;;;5.70;99.90;;;;;;5015471;28;20024;-70
2022/01/25 03:59:06;;;;;;;26.52;7.97;;;5.70;99.90;;;;;;5015657;28;20517;-70
2022/01/25 04:01:32;;;;;;;36.33;8.38;;;5.70;99.90;;;;;;5015576;28;20029;-70
2022/01/25 04:04:05;;;;;;;32.28;9.10;;;5.70;99.90;;;;;;5015335;28;20033;-70
2022/01/25 04:06:31;;;;;;;31.63;9.87;;;5.80;99.90;;;;;;5015322;28;20033;-70
2022/01/25 04:08:58;;;;;;;29.42;7.93;;;5.80;99.90;;;;;;5015246;28;20393;-70
2022/01/25 04:11:24;;;;;;;39.78;8.65;;;5.80;99.90;;;;;;5015177;28;20029;-70
2022/01/25 04:13:52;;;;;;;24.48;7.70;;;5.70;99.90;;;;;;5015429;28;20117;-70
2022/01/25 04:16:23;;;;;;;29.58;8.30;;;5.80;99.90;;;;;;5015231;28;20018;-70
2022/01/25 04:18:58;;;;;;;28.17;7.40;;;5.80;99.90;;;;;;5015114;28;20112;-70
2022/01/25 04:26:42;;;;;;;34.10;7.05;;;5.70;99.90;;;;;;5015246;28;20485;-70
2022/01/25 04:29:08;;;;;;;25.98;8.23;;;5.70;99.90;;;;;;5015147;28;20034;-70
2022/01/25 04:31:35;;;;;;;32.10;8.23;;;5.70;99.90;;;;;;5014787;28;20057;-68
2022/01/25 04:36:59;;;;;;;33.35;8.27;;;5.70;99.90;;;;;;5014741;28;20389;-68
2022/01/25 04:50:44;;;;;;;34.05;9.43;;;5.70;99.90;;;;;;5014869;28;19952;-68
2022/01/25 04:55:45;;;;;;;34.70;8.82;;;5.60;99.90;;;;;;5014383;28;20133;-68
2022/01/25 04:58:19;;;;;;;41.40;8.48;;;5.60;99.90;;;;;;5014661;28;20029;-68
2022/01/25 05:00:46;;;;;;;37.58;9.07;;;5.60;99.90;;;;;;5014207;28;20026;-68
2022/01/25 05:03:17;;;;;;;39.10;8.82;;;5.60;99.90;;;;;;5015109;28;20080;-68
2022/01/25 05:06:02;;;;;;;34.25;8.57;;;5.60;99.90;;;;;;5014302;28;20018;-68
2022/01/25 05:08:34;;;;;;;31.40;10.27;;;5.60;99.90;;;;;;5014770;28;20069;-68
2022/01/25 05:11:10;;;;;;;27.65;7.78;;;5.60;99.90;;;;;;5014326;28;20030;-69
2022/01/25 05:16:49;;;;;;;31.27;9.93;;;5.70;99.90;;;;;;5014684;28;20125;-68
2022/01/25 05:18:50;;;;;;;35.83;8.18;;;5.60;99.90;;;;;;5000230;28;20438;-68
2022/01/25 05:24:00;;;;;;;34.38;9.75;;;5.70;99.90;;;;;;5013988;28;20037;-68
2022/01/25 05:26:27;;;;;;;27.02;7.93;;;5.70;99.90;;;;;;5013884;28;20022;-68
2022/01/25 05:28:52;;;;;;;39.92;7.47;;;5.70;99.90;;;;;;5014046;28;20068;-68
2022/01/25 05:31:18;;;;;;;32.58;8.60;;;5.70;99.90;;;;;;5013772;28;20397;-68
2022/01/25 05:33:44;;;;;;;46.30;8.32;;;5.70;99.90;;;;;;5013480;28;20030;-68
2022/01/25 05:36:10;;;;;;;31.05;8.25;;;5.70;99.90;;;;;;5013803;28;20036;-68
2022/01/25 05:38:35;;;;;;;22.17;7.03;;;5.70;99.90;;;;;;5013753;28;20025;-68
2022/01/25 05:41:03;;;;;;;40.65;8.38;;;5.70;99.90;;;;;;5013695;28;20057;-68
2022/01/25 05:48:27;;;;;;;44.10;8.95;;;5.70;99.90;;;;;;5013912;28;20501;-68
2022/01/25 05:50:54;;;;;;;28.73;8.23;;;5.70;99.90;;;;;;5013543;28;20490;-68
2022/01/25 05:53:21;;;;;;;23.30;7.82;;;5.70;99.90;;;;;;5013606;28;20375;-68
2022/01/25 05:55:47;;;;;;;45.20;10.45;;;5.70;99.90;;;;;;5013671;28;20101;-68
2022/01/25 05:58:13;;;;;;;35.35;8.48;;;5.60;99.90;;;;;;5013567;28;20139;-68
2022/01/25 06:00:38;;;;;;;37.58;7.32;;;5.60;99.90;;;;;;5013359;28;20549;-69
2022/01/25 06:03:05;;;;;;;40.42;10.20;;;5.60;99.90;;;;;;5014044;28;20113;-68
2022/01/25 06:05:32;;;;;;;32.17;8.63;;;5.60;99.90;;;;;;5013456;28;20022;-68
2022/01/25 06:07:58;;;;;;;29.10;8.18;;;5.70;99.90;;;;;;5014029;28;20026;-68
2022/01/25 06:10:23;;;;;;;32.08;6.70;;;5.70;99.90;;;;;;5013425;28;20493;-68
2022/01/25 06:12:49;;;;;;;32.42;8.52;;;5.60;99.90;;;;;;5013629;28;20080;-68
2022/01/25 06:15:15;;;;;;;35.60;8.93;;;5.60;99.90;;;;;;5013424;28;20030;-68
2022/01/25 06:17:40;;;;;;;39.92;7.80;;;5.60;99.90;;;;;;5013342;28;20022;-68
2022/01/25 06:20:07;;;;;;;53.75;18.55;;;5.60;99.90;;;;;;5013540;28;20026;-68
2022/01/25 06:22:33;;;;;;;34.35;13.20;;;5.60;99.90;;;;;;5013201;28;20107;-68
2022/01/25 06:24:59;;;;;;;48.85;11.50;;;5.60;99.90;;;;;;5013296;28;20053;-68
2022/01/25 06:27:24;;;;;;;178.48;86.72;;;5.60;99.90;;;;;;4995643;28;20486;-68
2022/01/25 06:29:50;;;;;;;89.90;45.35;;;5.60;99.90;;;;;;5013766;28;20418;-68
2022/01/25 06:32:18;;;;;;;51.55;15.98;;;5.60;99.90;;;;;;5013913;28;20114;-68
2022/01/25 06:34:44;;;;;;;56.03;22.73;;;5.60;99.90;;;;;;5013380;28;20032;-68
2022/01/25 06:37:11;;;;;;;55.72;24.02;;;5.60;99.90;;;;;;5013741;28;20101;-68
2022/01/25 06:39:37;;;;;;;37.50;10.73;;;5.60;99.90;;;;;;5013122;28;20022;-68
2022/01/25 06:42:03;;;;;;;45.55;15.20;;;5.60;99.90;;;;;;5013219;28;20038;-68
2022/01/25 06:44:29;;;;;;;36.60;10.15;;;5.50;99.90;;;;;;5013322;28;20033;-68
2022/01/25 06:46:54;;;;;;;40.53;10.55;;;5.50;99.90;;;;;;5016824;28;20018;-68
2022/01/25 06:49:20;;;;;;;36.75;9.43;;;5.60;99.90;;;;;;5016740;28;20493;-68
2022/01/25 06:51:45;;;;;;;49.72;11.38;;;5.50;99.90;;;;;;5016726;28;20386;-68
2022/01/25 06:54:11;;;;;;;50.60;11.18;;;5.60;99.90;;;;;;5016701;28;20026;-68
2022/01/25 06:56:36;;;;;;;58.50;17.88;;;5.60;99.90;;;;;;5016717;28;20026;-68
2022/01/25 06:59:03;;;;;;;48.38;19.42;;;5.60;99.90;;;;;;5016556;28;20017;-68
2022/01/25 07:01:30;;;;;;;27.17;8.52;;;5.60;99.90;;;;;;5016363;28;20045;-68
2022/01/25 07:03:56;;;;;;;66.03;25.60;;;5.60;99.90;;;;;;5016802;28;20105;-68
2022/01/25 07:06:21;;;;;;;179.57;80.97;;;5.50;99.90;;;;;;5016465;28;20113;-68
2022/01/25 07:08:47;;;;;;;243.45;131.32;;;5.60;99.90;;;;;;5016358;28;20028;-68
2022/01/25 07:11:13;;;;;;;61.25;25.77;;;5.60;99.90;;;;;;5016372;28;20030;-69
2022/01/25 07:13:39;;;;;;;54.00;24.05;;;5.60;99.90;;;;;;5016296;28;20041;-70
2022/01/25 07:16:05;;;;;;;70.53;37.60;;;5.60;99.90;;;;;;5016271;28;20471;-70
2022/01/25 07:18:31;;;;;;;130.57;63.03;;;5.60;99.90;;;;;;5016414;28;20034;-70
2022/01/25 07:20:57;;;;;;;109.57;48.17;;;5.60;99.90;;;;;;5016305;28;20025;-70
2022/01/25 07:23:23;;;;;;;97.38;34.50;;;5.60;99.90;;;;;;5016163;28;20049;-70
2022/01/25 07:25:48;;;;;;;88.10;42.75;;;5.60;99.90;;;;;;5016288;28;20390;-70
2022/01/25 07:28:14;;;;;;;36.03;11.18;;;5.60;99.90;;;;;;5016087;28;20155;-70
2022/01/25 07:30:40;;;;;;;72.88;28.25;;;5.60;99.90;;;;;;5015894;28;20022;-70
2022/01/25 07:33:07;;;;;;;75.20;34.63;;;5.60;99.90;;;;;;5015976;28;20026;-70
2022/01/25 07:35:34;;;;;;;52.10;19.88;;;5.60;99.90;;;;;;5015996;28;20026;-70
2022/01/25 07:37:59;;;;;;;37.75;11.52;;;5.60;99.90;;;;;;5015875;28;20060;-70
2022/01/25 07:40:25;;;;;;;51.65;23.10;;;5.70;99.90;;;;;;5015688;28;20034;-70
2022/01/25 07:42:51;;;;;;;55.60;23.17;;;5.60;99.90;;;;;;5015743;28;20037;-70
2022/01/25 07:45:16;;;;;;;93.78;40.45;;;5.60;99.90;;;;;;5015718;28;20022;-70
2022/01/25 07:47:42;;;;;;;66.80;25.33;;;5.60;99.90;;;;;;4998149;28;20022;-71
2022/01/25 07:50:09;;;;;;;76.75;31.60;;;5.60;99.90;;;;;;5015893;28;20060;-70
2022/01/25 07:52:35;;;;;;;65.53;21.85;;;5.60;99.90;;;;;;5015627;28;20500;-70
2022/01/25 07:55:00;;;;;;;106.88;47.25;;;5.60;99.90;;;;;;5015917;28;20026;-71
2022/01/25 07:57:26;;;;;;;75.55;31.25;;;5.60;99.90;;;;;;5015078;28;20033;-70
2022/01/25 07:59:52;;;;;;;97.68;40.80;;;5.60;99.90;;;;;;5015666;28;20026;-70
2022/01/25 08:02:19;;;;;;;72.30;30.33;;;5.60;99.90;;;;;;5015856;28;20026;-71
2022/01/25 08:04:45;;;;;;;90.60;32.80;;;5.60;99.90;;;;;;5015849;28;20030;-70
2022/01/25 08:07:11;;;;;;;106.00;49.53;;;5.60;99.90;;;;;;5015957;28;20437;-70
2022/01/25 08:09:36;;;;;;;70.22;27.67;;;5.60;99.90;;;;;;5016557;28;20033;-70
2022/01/25 08:12:02;;;;;;;43.38;18.98;;;5.60;99.90;;;;;;5015492;28;20030;-70
2022/01/25 08:14:27;;;;;;;34.60;12.43;;;5.60;99.90;;;;;;5015164;28;20117;-70
2022/01/25 08:16:53;;;;;;;44.40;11.52;;;5.60;99.90;;;;;;5015418;28;20026;-70
2022/01/25 08:19:20;;;;;;;36.97;8.88;;;5.60;99.90;;;;;;5015048;28;20034;-70
2022/01/25 08:21:47;;;;;;;35.30;10.88;;;5.60;99.90;;;;;;5015232;28;20022;-70
2022/01/25 08:24:18;;;;;;;40.05;11.38;;;5.60;99.90;;;;;;5015506;28;20022;-70
2022/01/25 08:26:44;;;;;;;49.22;11.95;;;5.60;99.90;;;;;;5015224;28;20022;-70
2022/01/25 08:29:10;;;;;;;25.85;8.48;;;5.50;99.90;;;;;;5015172;28;20378;-70
2022/01/25 08:31:38;;;;;;;41.35;10.10;;;5.60;99.90;;;;;;5014744;28;20033;-70
2022/01/25 08:34:04;;;;;;;35.35;11.20;;;5.60;99.90;;;;;;5014766;28;20026;-70
2022/01/25 08:36:30;;;;;;;30.35;10.57;;;5.60;99.90;;;;;;5014706;28;20385;-70
2022/01/25 08:38:56;;;;;;;20.92;7.10;;;5.60;99.90;;;;;;5015475;28;20030;-70
2022/01/25 08:41:22;;;;;;;28.83;8.77;;;5.60;99.90;;;;;;5014987;28;20121;-68
2022/01/25 08:43:48;;;;;;;42.60;9.10;;;5.60;99.90;;;;;;5014911;28;20022;-68
2022/01/25 08:46:14;;;;;;;26.48;9.88;;;5.60;99.90;;;;;;4997145;28;20052;-68
2022/01/25 08:48:40;;;;;;;34.10;8.05;;;5.60;99.90;;;;;;5014590;28;20453;-68
2022/01/25 08:51:07;;;;;;;33.65;9.68;;;5.70;99.90;;;;;;5014663;28;20030;-68
2022/01/25 08:53:33;;;;;;;35.28;8.65;;;5.70;99.90;;;;;;5014488;28;20022;-68
2022/01/25 08:55:59;;;;;;;32.83;8.65;;;5.60;99.90;;;;;;5014733;28;20385;-68
2022/01/25 08:58:25;;;;;;;34.25;8.40;;;5.70;99.90;;;;;;4996797;28;20030;-68
2022/01/25 09:00:51;;;;;;;40.72;10.00;;;5.70;99.90;;;;;;4996599;28;20022;-68
2022/01/25 09:03:17;;;;;;;30.10;8.38;;;5.70;99.90;;;;;;5014351;28;20018;-68
2022/01/25 09:05:42;;;;;;;29.33;7.82;;;5.70;99.90;;;;;;5014472;28;20022;-68
2022/01/25 09:08:09;;;;;;;37.22;9.95;;;5.70;99.90;;;;;;5014406;28;20057;-68
2022/01/25 09:10:35;;;;;;;31.80;9.02;;;5.70;99.90;;;;;;5014169;28;20022;-69
2022/01/25 09:13:01;;;;;;;44.70;9.57;;;5.70;99.90;;;;;;5014120;28;20025;-69
2022/01/25 09:15:27;;;;;;;34.35;8.60;;;5.70;99.90;;;;;;5014069;28;20073;-69
2022/01/25 09:17:52;;;;;;;42.05;8.93;;;5.70;99.90;;;;;;5014078;28;20053;-69
2022/01/25 09:20:19;;;;;;;29.85;10.32;;;5.70;99.90;;;;;;5014479;28;20038;-69
2022/01/25 09:22:45;;;;;;;50.45;9.60;;;5.70;99.90;;;;;;5013917;28;20026;-70
2022/01/25 09:25:12;;;;;;;41.97;10.90;;;5.80;99.90;;;;;;5013923;28;20018;-69
2022/01/25 09:27:38;;;;;;;37.10;9.20;;;5.80;99.90;;;;;;4996264;28;20025;-69
2022/01/25 09:30:04;;;;;;;52.65;10.23;;;5.80;99.90;;;;;;5013891;28;20026;-69
2022/01/25 09:32:30;;;;;;;41.60;10.38;;;5.70;99.90;;;;;;5014009;28;20026;-69
2022/01/25 09:34:56;;;;;;;49.50;10.98;;;5.80;99.90;;;;;;5014082;28;20109;-69
2022/01/25 09:37:21;;;;;;;39.70;9.20;;;5.70;99.90;;;;;;5013739;28;20034;-69
2022/01/25 09:39:47;;;;;;;43.03;10.00;;;5.70;99.90;;;;;;5013596;28;20073;-70
2022/01/25 09:42:13;;;;;;;38.83;9.43;;;5.80;99.90;;;;;;5013527;28;20029;-70
2022/01/25 09:44:40;;;;;;;41.55;8.98;;;5.80;99.90;;;;;;5013804;28;20037;-70
2022/01/25 09:47:07;;;;;;;44.00;12.18;;;5.80;99.90;;;;;;5013664;28;20109;-70
2022/01/25 09:49:33;;;;;;;38.60;11.13;;;5.80;99.90;;;;;;5013482;28;20072;-70
2022/01/25 09:52:04;;;;;;;35.15;10.95;;;5.80;99.90;;;;;;5013480;28;20030;-70
2022/01/25 09:54:31;;;;;;;33.30;9.70;;;5.80;99.90;;;;;;5013522;28;20359;-70
2022/01/25 09:56:58;;;;;;;32.80;10.52;;;5.80;99.90;;;;;;5014096;28;20018;-70
2022/01/25 09:59:26;;;;;;;41.10;10.77;;;5.80;99.90;;;;;;5013452;28;20100;-70
2022/01/25 10:01:52;;;;;;;47.40;12.68;;;5.90;99.90;;;;;;5013425;28;20026;-70
2022/01/25 10:04:32;;;;;;;47.30;10.98;;;5.90;99.90;;;;;;5013493;28;20528;-70
2022/01/25 10:06:58;;;;;;;40.03;10.77;;;5.90;99.90;;;;;;5013807;28;20026;-70
2022/01/25 10:09:25;;;;;;;39.75;12.00;;;5.90;99.90;;;;;;5013758;28;20026;-70
2022/01/25 10:11:51;;;;;;;41.42;11.18;;;5.90;99.90;;;;;;5013628;28;20029;-70
2022/01/25 10:14:17;;;;;;;30.50;9.98;;;5.90;99.90;;;;;;5013412;28;20030;-70
2022/01/25 10:16:45;;;;;;;46.30;11.43;;;5.90;99.90;;;;;;5013821;28;20060;-70
2022/01/25 10:19:13;;;;;;;44.88;11.23;;;5.90;99.90;;;;;;5013291;28;20022;-70
2022/01/25 10:21:48;;;;;;;52.15;13.02;;;5.90;99.90;;;;;;5016369;28;20375;-70
2022/01/25 10:24:15;;;;;;;35.08;11.60;;;5.90;99.90;;;;;;5017602;28;20024;-70
2022/01/25 10:26:53;;;;;;;46.72;12.18;;;6.00;99.90;;;;;;5017333;28;20028;-70
2022/01/25 10:29:36;;;;;;;43.72;12.23;;;6.00;99.90;;;;;;5017192;28;20026;-70
2022/01/25 10:32:06;;;;;;;44.88;12.05;;;6.00;99.90;;;;;;5017321;28;20470;-70
2022/01/25 10:34:39;;;;;;;47.33;13.18;;;6.00;99.90;;;;;;5017196;28;20026;-70
2022/01/25 10:37:10;;;;;;;48.38;11.43;;;6.00;99.90;;;;;;5017348;28;20018;-70
2022/01/25 10:39:40;;;;;;;48.30;12.52;;;6.00;99.90;;;;;;5016936;28;20034;-70
2022/01/25 10:42:09;;;;;;;57.45;12.73;;;6.00;99.90;;;;;;5016928;28;20058;-70
2022/01/25 10:44:56;;;;;;;43.42;13.15;;;6.00;99.90;;;;;;5016974;28;20014;-68
2022/01/25 10:47:52;;;;;;;49.92;12.32;;;6.00;99.90;;;;;;5017365;28;20112;-68
2022/01/25 10:50:23;;;;;;;39.67;11.93;;;6.00;99.90;;;;;;5000752;28;20058;-68
2022/01/25 10:53:07;;;;;;;56.45;11.57;;;6.10;99.90;;;;;;5016613;28;20469;-68
2022/01/25 10:55:41;;;;;;;39.38;11.40;;;6.00;99.90;;;;;;5016945;28;20434;-68
2022/01/25 10:58:07;;;;;;;49.65;14.18;;;6.10;99.90;;;;;;5016936;28;20026;-68
2022/01/25 11:00:37;;;;;;;58.08;12.00;;;6.10;99.90;;;;;;5016649;28;20038;-68
2022/01/25 11:03:05;;;;;;;56.42;13.68;;;6.10;99.90;;;;;;4999186;28;20363;-68
2022/01/25 11:05:36;;;;;;;60.35;13.57;;;6.20;99.90;;;;;;5016454;28;20046;-68
2022/01/25 11:08:18;;;;;;;56.65;12.60;;;6.20;99.90;;;;;;5016591;28;20045;-68
2022/01/25 11:10:52;;;;;;;45.67;12.07;;;6.20;99.90;;;;;;5016309;28;20049;-68
2022/01/25 11:15:53;;;;;;;52.95;12.52;;;6.20;99.90;;;;;;5016933;28;20126;-68
2022/01/25 11:18:18;;;;;;;48.95;13.68;;;6.20;99.90;;;;;;5015923;28;20065;-68
2022/01/25 11:20:45;;;;;;;53.80;13.52;;;6.20;99.90;;;;;;5015803;28;20029;-68
2022/01/25 11:23:11;;;;;;;44.85;12.35;;;6.20;99.90;;;;;;5016166;28;20029;-68
2022/01/25 11:25:39;;;;;;;60.47;13.70;;;6.20;99.90;;;;;;5015785;28;20026;-69
2022/01/25 11:28:05;;;;;;;44.75;13.05;;;6.20;99.90;;;;;;5016040;28;20470;-68
2022/01/25 11:30:31;;;;;;;61.40;13.38;;;6.20;99.90;;;;;;5015943;28;20030;-68
2022/01/25 11:32:57;;;;;;;52.00;13.25;;;6.20;99.90;;;;;;5014621;28;20030;-69
2022/01/25 11:35:26;;;;;;;55.28;13.77;;;6.20;99.90;;;;;;5015974;28;20025;-69
2022/01/25 11:37:52;;;;;;;72.93;15.25;;;6.20;99.90;;;;;;5015861;28;20041;-68
2022/01/25 11:40:40;;;;;;;77.40;15.10;;;6.20;99.90;;;;;;5016061;28;20088;-68
2022/01/25 11:43:12;;;;;;;57.15;14.10;;;6.30;99.90;;;;;;5015810;28;20026;-68
2022/01/25 11:45:41;;;;;;;61.85;14.30;;;6.30;99.90;;;;;;5016014;28;20382;-68
2022/01/25 11:48:07;;;;;;;45.55;14.20;;;6.30;99.90;;;;;;5015751;28;20221;-68
2022/01/25 11:50:39;;;;;;;44.97;15.20;;;6.30;99.90;;;;;;5015915;28;20116;-68
2022/01/25 11:53:11;;;;;;;73.95;17.02;;;6.30;99.90;;;;;;5015794;28;20091;-68
2022/01/25 11:55:46;;;;;;;51.72;15.48;;;6.30;99.90;;;;;;5015535;28;20077;-68
2022/01/25 11:58:15;;;;;;;46.90;15.63;;;6.30;99.90;;;;;;5015832;28;20106;-68
2022/01/25 12:00:42;;;;;;;62.05;16.58;;;6.30;99.90;;;;;;5015228;28;20036;-68
2022/01/25 12:03:29;;;;;;;43.05;14.55;;;6.30;99.90;;;;;;5015583;28;20029;-68
2022/01/25 12:06:07;;;;;;;87.97;16.30;;;6.20;99.90;;;;;;5015383;28;20022;-68
2022/01/25 12:08:41;;;;;;;62.97;16.23;;;6.30;99.90;;;;;;5015611;28;20033;-68
2022/01/25 12:11:32;;;;;;;65.97;18.25;;;6.30;99.90;;;;;;5015807;28;20056;-68
2022/01/25 12:14:27;;;;;;;65.30;20.13;;;6.30;99.90;;;;;;5015616;28;20033;-68
2022/01/25 12:17:04;;;;;;;64.55;19.95;;;6.30;99.90;;;;;;5015182;28;20028;-68
2022/01/25 12:19:37;;;;;;;63.22;16.65;;;6.30;99.90;;;;;;5015048;28;20080;-68
2022/01/25 12:22:15;;;;;;;55.80;14.57;;;6.30;99.90;;;;;;5014995;28;20014;-68
2022/01/25 12:24:43;;;;;;;51.15;16.52;;;6.30;99.90;;;;;;5015633;28;20462;-68
2022/01/25 12:28:09;;;;;;;58.28;15.95;;;6.30;99.90;;;;;;5015270;28;20391;-68
2022/01/25 12:30:39;;;;;;;64.65;16.55;;;6.30;99.90;;;;;;4916593;29;20032;-69
2022/01/25 12:33:20;;;;;;;63.45;16.17;;;6.30;99.90;;;;;;5000127;28;20054;-68
2022/01/25 12:36:00;;;;;;;61.38;19.00;;;6.30;99.90;;;;;;5014866;28;20030;-68
2022/01/25 12:38:38;;;;;;;56.08;16.65;;;6.30;99.90;;;;;;5015064;28;20022;-68
2022/01/25 12:41:18;;;;;;;54.50;17.17;;;6.30;99.90;;;;;;5014459;28;20040;-68
2022/01/25 12:43:53;;;;;;;47.20;14.65;;;6.30;99.90;;;;;;5014540;28;20111;-68
2022/01/25 12:46:29;;;;;;;56.08;16.67;;;6.30;99.90;;;;;;5015026;28;20511;-68
2022/01/25 12:49:11;;;;;;;47.03;14.25;;;6.40;99.90;;;;;;5014968;28;20052;-68
2022/01/25 12:51:40;;;;;;;49.28;15.27;;;6.30;99.90;;;;;;5014639;28;20052;-68
2022/01/25 12:54:08;;;;;;;60.00;15.82;;;6.40;99.90;;;;;;5014520;28;20429;-68
2022/01/25 12:56:36;;;;;;;56.50;13.63;;;6.40;99.90;;;;;;5014463;28;20026;-68
2022/01/25 12:59:09;;;;;;;47.53;14.57;;;6.30;99.90;;;;;;5014654;28;20084;-68
2022/01/25 13:01:37;;;;;;;51.47;15.40;;;6.40;99.90;;;;;;5014271;28;20033;-68
2022/01/25 13:04:05;;;;;;;51.20;15.55;;;6.40;99.90;;;;;;5014296;28;20026;-68
2022/01/25 13:06:37;;;;;;;58.45;16.27;;;6.40;99.90;;;;;;5014249;28;20029;-68
2022/01/25 13:09:15;;;;;;;68.68;16.92;;;6.40;99.90;;;;;;5014494;28;20466;-68
2022/01/25 13:17:05;;;;;;;64.50;15.13;;;6.40;99.90;;;;;;5014492;28;20064;-68
2022/01/25 13:19:39;;;;;;;56.42;15.18;;;6.40;99.90;;;;;;5014249;28;20022;-68
2022/01/25 13:22:15;;;;;;;46.20;15.25;;;6.40;99.90;;;;;;5014100;28;20046;-68
2022/01/25 13:24:55;;;;;;;53.97;14.70;;;6.40;99.90;;;;;;5014240;28;20050;-68
2022/01/25 13:27:21;;;;;;;56.50;16.80;;;6.40;99.90;;;;;;5014278;28;20023;-68
2022/01/25 13:32:51;;;;;;;51.38;15.35;;;6.40;99.90;;;;;;5014159;28;20558;-68
2022/01/25 13:35:25;;;;;;;58.45;13.90;;;6.50;99.90;;;;;;5014515;28;20026;-68
2022/01/25 13:38:32;;;;;;;52.55;14.52;;;6.40;99.90;;;;;;5014058;28;20529;-68
2022/01/25 13:46:06;;;;;;;42.83;12.98;;;6.50;99.90;;;;;;5014284;28;20076;-68
2022/01/25 13:48:34;;;;;;;43.70;17.02;;;6.50;99.90;;;;;;5013929;28;20018;-68
2022/01/25 13:51:08;;;;;;;61.42;23.73;;;6.50;99.90;;;;;;4995958;28;20041;-68
2022/01/25 13:53:36;;;;;;;49.90;16.90;;;6.50;99.90;;;;;;5013938;28;20429;-68
2022/01/25 13:56:04;;;;;;;39.40;11.32;;;6.50;99.90;;;;;;5012867;28;20081;-68
2022/01/25 13:58:36;;;;;;;28.80;12.25;;;6.40;99.90;;;;;;5013566;28;20057;-68
2022/01/25 14:01:05;;;;;;;71.85;26.52;;;6.50;99.90;;;;;;5013387;28;20030;-68
2022/01/25 14:03:38;;;;;;;50.60;15.73;;;6.50;99.90;;;;;;5013410;28;20022;-68
2022/01/25 14:06:30;;;;;;;36.33;15.25;;;6.50;99.90;;;;;;5014090;28;20072;-68
2022/01/25 14:09:11;;;;;;;41.75;13.85;;;6.50;99.90;;;;;;5013703;28;20045;-68
2022/01/25 14:22:47;;;;;;;68.95;26.80;;;6.50;99.90;;;;;;5013450;28;20467;-68
2022/01/25 14:25:24;;;;;;;36.45;12.27;;;6.40;99.90;;;;;;4995993;28;20363;-68
2022/01/25 14:27:55;;;;;;;40.75;13.30;;;6.40;99.90;;;;;;5013574;28;20462;-68
2022/01/25 14:30:21;;;;;;;37.95;10.88;;;6.40;99.90;;;;;;5013342;28;20105;-68
2022/01/25 14:33:00;;;;;;;54.85;19.13;;;6.50;99.90;;;;;;5013153;28;20165;-68
2022/01/25 14:35:27;;;;;;;38.30;15.50;;;6.50;99.90;;;;;;5013611;28;20030;-68
2022/01/25 14:37:53;;;;;;;45.00;14.02;;;6.40;99.90;;;;;;4995652;28;20550;-68
2022/01/25 14:40:18;;;;;;;73.50;24.50;;;6.40;99.90;;;;;;5013184;28;20164;-68
2022/01/25 14:42:46;;;;;;;43.20;16.58;;;6.40;99.90;;;;;;5067954;23;20046;-68
2022/01/25 14:45:23;;;;;;;30.13;8.70;;;6.40;99.90;;;;;;5013257;28;20105;-68
2022/01/25 14:47:53;;;;;;;30.30;10.65;;;6.30;99.90;;;;;;5013309;28;20145;-67
2022/01/25 14:50:21;;;;;;;61.25;23.25;;;6.40;99.90;;;;;;5013481;28;20030;-68
2022/01/25 14:53:10;;;;;;;23.33;9.43;;;6.30;99.90;;;;;;5013326;28;20025;-68
2022/01/25 14:55:39;;;;;;;30.20;8.52;;;6.30;99.90;;;;;;5013443;28;20104;-68
2022/01/25 15:00:51;;;;;;;37.60;10.45;;;6.30;99.90;;;;;;5013309;28;20070;-67
2022/01/25 15:03:19;;;;;;;44.92;16.45;;;6.30;99.90;;;;;;5012939;28;20505;-67
2022/01/25 15:05:47;;;;;;;27.02;9.35;;;6.20;99.90;;;;;;5013104;28;20030;-68
2022/01/25 15:08:13;;;;;;;36.75;14.93;;;6.20;99.90;;;;;;5016554;28;20072;-67
2022/01/25 15:10:44;;;;;;;27.95;6.10;;;6.20;99.90;;;;;;5016637;28;20107;-67
2022/01/25 15:13:10;;;;;;;36.85;10.98;;;6.20;99.90;;;;;;5016678;28;20026;-69